sensor_id;sensor_type;location;lat;lon;timestamp;P1;durP1;ratioP1;P2;durP2;ratioP2
11269;SDS011;5692;48.956;9.200;2023-02-28T00:01:27;89.72;;;85.43;;
11269;SDS011;5692;48.956;9.200;2023-02-28T00:03:53;88.53;;;84.25;;
11269;SDS011;5692;48.956;9.200;2023-02-28T00:06:19;101.07;;;96.22;;
11269;SDS011;5692;48.956;9.200;2023-02-28T00:08:46;100.95;;;96.07;;
11269;SDS011;5692;48.956;9.200;2023-02-28T00:11:14;92.32;;;87.88;;
11269;SDS011;5692;48.956;9.200;2023-02-28T00:13:42;91.15;;;86.75;;
11269;SDS011;5692;48.956;9.200;2023-02-28T00:16:12;93.78;;;89.28;;
11269;SDS011;5692;48.956;9.200;2023-02-28T00:18:40;89.20;;;84.90;;
11269;SDS011;5692;48.956;9.200;2023-02-28T00:21:06;94.97;;;90.38;;
11269;SDS011;5692;48.956;9.200;2023-02-28T00:23:37;93.25;;;88.75;;
11269;SDS011;5692;48.956;9.200;2023-02-28T00:26:03;93.57;;;89.07;;
11269;SDS011;5692;48.956;9.200;2023-02-28T00:28:29;92.25;;;87.82;;
11269;SDS011;5692;48.956;9.200;2023-02-28T00:30:55;92.85;;;88.38;;
11269;SDS011;5692;48.956;9.200;2023-02-28T00:33:22;91.07;;;86.68;;
11269;SDS011;5692;48.956;9.200;2023-02-28T00:35:49;87.75;;;83.55;;
11269;SDS011;5692;48.956;9.200;2023-02-28T00:38:17;91.45;;;87.05;;
11269;SDS011;5692;48.956;9.200;2023-02-28T00:40:47;90.90;;;86.50;;
11269;SDS011;5692;48.956;9.200;2023-02-28T00:43:13;90.50;;;86.13;;
11269;SDS011;5692;48.956;9.200;2023-02-28T00:45:39;88.80;;;84.50;;
11269;SDS011;5692;48.956;9.200;2023-02-28T00:48:05;86.88;;;82.68;;
11269;SDS011;5692;48.956;9.200;2023-02-28T00:50:31;81.63;;;77.70;;
11269;SDS011;5692;48.956;9.200;2023-02-28T00:52:57;88.70;;;84.43;;
11269;SDS011;5692;48.956;9.200;2023-02-28T00:55:23;85.10;;;81.00;;
11269;SDS011;5692;48.956;9.200;2023-02-28T00:57:49;84.63;;;80.53;;
11269;SDS011;5692;48.956;9.200;2023-02-28T01:00:18;83.25;;;79.25;;
11269;SDS011;5692;48.956;9.200;2023-02-28T01:02:44;75.72;;;72.03;;
11269;SDS011;5692;48.956;9.200;2023-02-28T01:05:13;84.15;;;80.10;;
11269;SDS011;5692;48.956;9.200;2023-02-28T01:07:42;80.88;;;76.97;;
11269;SDS011;5692;48.956;9.200;2023-02-28T01:10:11;80.65;;;76.75;;
11269;SDS011;5692;48.956;9.200;2023-02-28T01:12:38;83.68;;;79.65;;
11269;SDS011;5692;48.956;9.200;2023-02-28T01:15:04;82.25;;;78.25;;
11269;SDS011;5692;48.956;9.200;2023-02-28T01:17:30;87.85;;;83.65;;
11269;SDS011;5692;48.956;9.200;2023-02-28T01:19:59;83.20;;;79.20;;
11269;SDS011;5692;48.956;9.200;2023-02-28T01:22:25;80.72;;;76.82;;
11269;SDS011;5692;48.956;9.200;2023-02-28T01:24:52;87.10;;;82.90;;
11269;SDS011;5692;48.956;9.200;2023-02-28T01:27:18;86.95;;;82.75;;
11269;SDS011;5692;48.956;9.200;2023-02-28T01:29:44;86.97;;;82.78;;
11269;SDS011;5692;48.956;9.200;2023-02-28T01:32:10;85.55;;;81.45;;
11269;SDS011;5692;48.956;9.200;2023-02-28T01:34:36;81.55;;;77.65;;
11269;SDS011;5692;48.956;9.200;2023-02-28T01:37:05;82.30;;;78.30;;
11269;SDS011;5692;48.956;9.200;2023-02-28T01:39:31;83.30;;;79.30;;
11269;SDS011;5692;48.956;9.200;2023-02-28T01:41:57;83.47;;;79.47;;
11269;SDS011;5692;48.956;9.200;2023-02-28T01:47:12;85.70;;;81.57;;
11269;SDS011;5692;48.956;9.200;2023-02-28T01:49:39;82.97;;;78.97;;
11269;SDS011;5692;48.956;9.200;2023-02-28T01:52:10;87.78;;;83.57;;
11269;SDS011;5692;48.956;9.200;2023-02-28T01:54:43;84.65;;;80.55;;
11269;SDS011;5692;48.956;9.200;2023-02-28T01:57:13;79.47;;;75.65;;
11269;SDS011;5692;48.956;9.200;2023-02-28T01:59:47;87.47;;;83.28;;
11269;SDS011;5692;48.956;9.200;2023-02-28T02:02:16;85.20;;;81.10;;
11269;SDS011;5692;48.956;9.200;2023-02-28T02:04:50;87.57;;;83.38;;
11269;SDS011;5692;48.956;9.200;2023-02-28T02:07:17;81.85;;;77.90;;
11269;SDS011;5692;48.956;9.200;2023-02-28T02:09:43;80.30;;;76.40;;
11269;SDS011;5692;48.956;9.200;2023-02-28T02:12:27;82.82;;;78.82;;
11269;SDS011;5692;48.956;9.200;2023-02-28T02:17:45;82.68;;;78.68;;
11269;SDS011;5692;48.956;9.200;2023-02-28T02:25:26;85.00;;;80.90;;
11269;SDS011;5692;48.956;9.200;2023-02-28T02:27:59;90.68;;;86.28;;
11269;SDS011;5692;48.956;9.200;2023-02-28T02:33:22;85.35;;;81.25;;
11269;SDS011;5692;48.956;9.200;2023-02-28T02:38:40;80.63;;;76.75;;
11269;SDS011;5692;48.956;9.200;2023-02-28T02:43:46;79.75;;;75.90;;
11269;SDS011;5692;48.956;9.200;2023-02-28T02:46:21;83.78;;;79.75;;
11269;SDS011;5692;48.956;9.200;2023-02-28T02:48:48;92.85;;;88.35;;
11269;SDS011;5692;48.956;9.200;2023-02-28T02:51:18;89.97;;;85.65;;
11269;SDS011;5692;48.956;9.200;2023-02-28T02:53:54;94.88;;;90.28;;
11269;SDS011;5692;48.956;9.200;2023-02-28T02:56:24;89.97;;;85.65;;
11269;SDS011;5692;48.956;9.200;2023-02-28T02:58:51;91.32;;;86.93;;
11269;SDS011;5692;48.956;9.200;2023-02-28T03:01:23;89.07;;;84.78;;
11269;SDS011;5692;48.956;9.200;2023-02-28T03:04:09;92.80;;;88.30;;
11269;SDS011;5692;48.956;9.200;2023-02-28T03:06:36;93.13;;;88.63;;
11269;SDS011;5692;48.956;9.200;2023-02-28T03:09:08;89.80;;;85.47;;
11269;SDS011;5692;48.956;9.200;2023-02-28T03:11:37;91.38;;;86.97;;
11269;SDS011;5692;48.956;9.200;2023-02-28T03:30:00;88.18;;;83.93;;
11269;SDS011;5692;48.956;9.200;2023-02-28T03:32:34;78.55;;;74.75;;
11269;SDS011;5692;48.956;9.200;2023-02-28T03:35:02;83.15;;;79.15;;
11269;SDS011;5692;48.956;9.200;2023-02-28T03:37:31;85.10;;;81.00;;
11269;SDS011;5692;48.956;9.200;2023-02-28T03:40:08;84.40;;;80.32;;
11269;SDS011;5692;48.956;9.200;2023-02-28T03:42:38;83.28;;;79.28;;
11269;SDS011;5692;48.956;9.200;2023-02-28T03:45:08;81.38;;;77.47;;
11269;SDS011;5692;48.956;9.200;2023-02-28T03:50:06;79.47;;;75.68;;
11269;SDS011;5692;48.956;9.200;2023-02-28T03:52:38;85.97;;;81.82;;
11269;SDS011;5692;48.956;9.200;2023-02-28T03:55:08;80.60;;;76.72;;
11269;SDS011;5692;48.956;9.200;2023-02-28T04:02:36;81.32;;;77.43;;
11269;SDS011;5692;48.956;9.200;2023-02-28T04:05:04;84.90;;;80.80;;
11269;SDS011;5692;48.956;9.200;2023-02-28T04:07:33;84.25;;;80.15;;
11269;SDS011;5692;48.956;9.200;2023-02-28T04:09:59;84.78;;;80.68;;
11269;SDS011;5692;48.956;9.200;2023-02-28T04:12:25;79.43;;;75.63;;
11269;SDS011;5692;48.956;9.200;2023-02-28T04:14:57;85.43;;;81.32;;
11269;SDS011;5692;48.956;9.200;2023-02-28T04:17:23;89.68;;;85.38;;
11269;SDS011;5692;48.956;9.200;2023-02-28T04:19:52;88.47;;;84.18;;
11269;SDS011;5692;48.956;9.200;2023-02-28T04:22:21;85.70;;;81.60;;
11269;SDS011;5692;48.956;9.200;2023-02-28T04:24:53;86.47;;;82.28;;
11269;SDS011;5692;48.956;9.200;2023-02-28T04:27:20;82.25;;;78.25;;
11269;SDS011;5692;48.956;9.200;2023-02-28T04:29:46;81.72;;;77.78;;
11269;SDS011;5692;48.956;9.200;2023-02-28T04:32:13;92.50;;;88.03;;
11269;SDS011;5692;48.956;9.200;2023-02-28T04:34:39;85.13;;;81.03;;
11269;SDS011;5692;48.956;9.200;2023-02-28T04:37:05;85.30;;;81.20;;
11269;SDS011;5692;48.956;9.200;2023-02-28T04:39:34;90.72;;;86.32;;
11269;SDS011;5692;48.956;9.200;2023-02-28T04:42:03;87.50;;;83.30;;
11269;SDS011;5692;48.956;9.200;2023-02-28T04:44:29;85.28;;;81.15;;
11269;SDS011;5692;48.956;9.200;2023-02-28T04:46:55;92.93;;;88.45;;
11269;SDS011;5692;48.956;9.200;2023-02-28T04:49:24;87.13;;;82.93;;
11269;SDS011;5692;48.956;9.200;2023-02-28T04:51:50;86.65;;;82.45;;
11269;SDS011;5692;48.956;9.200;2023-02-28T04:54:20;78.68;;;74.88;;
11269;SDS011;5692;48.956;9.200;2023-02-28T04:56:46;86.57;;;82.38;;
11269;SDS011;5692;48.956;9.200;2023-02-28T04:59:14;91.47;;;87.07;;
11269;SDS011;5692;48.956;9.200;2023-02-28T05:01:40;81.10;;;77.20;;
11269;SDS011;5692;48.956;9.200;2023-02-28T05:04:11;89.85;;;85.55;;
11269;SDS011;5692;48.956;9.200;2023-02-28T05:06:37;83.18;;;79.18;;
11269;SDS011;5692;48.956;9.200;2023-02-28T05:09:03;83.22;;;79.22;;
11269;SDS011;5692;48.956;9.200;2023-02-28T05:11:32;86.75;;;82.55;;
11269;SDS011;5692;48.956;9.200;2023-02-28T05:14:05;88.70;;;84.40;;
11269;SDS011;5692;48.956;9.200;2023-02-28T05:16:35;92.25;;;87.82;;
11269;SDS011;5692;48.956;9.200;2023-02-28T05:19:01;84.72;;;80.63;;
11269;SDS011;5692;48.956;9.200;2023-02-28T05:21:31;85.53;;;81.43;;
11269;SDS011;5692;48.956;9.200;2023-02-28T05:24:05;85.53;;;81.43;;
11269;SDS011;5692;48.956;9.200;2023-02-28T05:26:35;86.90;;;82.70;;
11269;SDS011;5692;48.956;9.200;2023-02-28T05:29:01;95.90;;;91.30;;
11269;SDS011;5692;48.956;9.200;2023-02-28T05:31:27;87.32;;;83.13;;
11269;SDS011;5692;48.956;9.200;2023-02-28T05:33:56;88.68;;;84.38;;
11269;SDS011;5692;48.956;9.200;2023-02-28T05:36:26;87.78;;;83.55;;
11269;SDS011;5692;48.956;9.200;2023-02-28T05:38:52;88.50;;;84.20;;
11269;SDS011;5692;48.956;9.200;2023-02-28T05:41:18;86.80;;;82.60;;
11269;SDS011;5692;48.956;9.200;2023-02-28T05:43:48;86.60;;;82.40;;
11269;SDS011;5692;48.956;9.200;2023-02-28T05:46:17;88.22;;;83.97;;
11269;SDS011;5692;48.956;9.200;2023-02-28T05:48:45;85.85;;;81.75;;
11269;SDS011;5692;48.956;9.200;2023-02-28T05:51:16;92.60;;;88.13;;
11269;SDS011;5692;48.956;9.200;2023-02-28T05:53:43;86.88;;;82.68;;
11269;SDS011;5692;48.956;9.200;2023-02-28T05:56:09;92.55;;;88.07;;
11269;SDS011;5692;48.956;9.200;2023-02-28T05:58:35;81.93;;;77.97;;
11269;SDS011;5692;48.956;9.200;2023-02-28T06:01:18;86.70;;;82.50;;
11269;SDS011;5692;48.956;9.200;2023-02-28T06:03:45;78.43;;;74.63;;
11269;SDS011;5692;48.956;9.200;2023-02-28T06:06:11;84.85;;;80.75;;
11269;SDS011;5692;48.956;9.200;2023-02-28T06:08:37;82.18;;;78.18;;
11269;SDS011;5692;48.956;9.200;2023-02-28T06:11:03;75.00;;;71.40;;
11269;SDS011;5692;48.956;9.200;2023-02-28T06:13:32;81.40;;;77.47;;
11269;SDS011;5692;48.956;9.200;2023-02-28T06:16:01;84.40;;;80.32;;
11269;SDS011;5692;48.956;9.200;2023-02-28T06:18:27;82.32;;;78.32;;
11269;SDS011;5692;48.956;9.200;2023-02-28T06:20:54;97.28;;;92.57;;
11269;SDS011;5692;48.956;9.200;2023-02-28T06:23:20;92.05;;;87.63;;
11269;SDS011;5692;48.956;9.200;2023-02-28T06:25:46;89.43;;;85.13;;
11269;SDS011;5692;48.956;9.200;2023-02-28T06:28:14;90.75;;;86.38;;
11269;SDS011;5692;48.956;9.200;2023-02-28T06:30:43;89.30;;;85.00;;
11269;SDS011;5692;48.956;9.200;2023-02-28T06:33:18;82.72;;;78.72;;
11269;SDS011;5692;48.956;9.200;2023-02-28T06:35:44;85.53;;;81.43;;
11269;SDS011;5692;48.956;9.200;2023-02-28T06:38:12;86.57;;;82.38;;
11269;SDS011;5692;48.956;9.200;2023-02-28T06:40:38;88.80;;;84.50;;
11269;SDS011;5692;48.956;9.200;2023-02-28T06:43:04;90.28;;;85.93;;
11269;SDS011;5692;48.956;9.200;2023-02-28T06:45:30;85.38;;;81.28;;
11269;SDS011;5692;48.956;9.200;2023-02-28T06:47:56;77.25;;;73.55;;
11269;SDS011;5692;48.956;9.200;2023-02-28T06:50:27;91.18;;;86.78;;
11269;SDS011;5692;48.956;9.200;2023-02-28T06:52:55;83.65;;;79.63;;
11269;SDS011;5692;48.956;9.200;2023-02-28T06:55:24;91.40;;;87.00;;
11269;SDS011;5692;48.956;9.200;2023-02-28T06:57:54;92.07;;;87.65;;
11269;SDS011;5692;48.956;9.200;2023-02-28T07:00:25;89.70;;;85.40;;
11269;SDS011;5692;48.956;9.200;2023-02-28T07:02:59;94.60;;;90.03;;
11269;SDS011;5692;48.956;9.200;2023-02-28T07:05:25;90.10;;;85.80;;
11269;SDS011;5692;48.956;9.200;2023-02-28T07:07:53;92.07;;;87.68;;
11269;SDS011;5692;48.956;9.200;2023-02-28T07:10:28;84.85;;;80.75;;
11269;SDS011;5692;48.956;9.200;2023-02-28T07:12:54;83.00;;;79.00;;
11269;SDS011;5692;48.956;9.200;2023-02-28T07:15:23;79.45;;;75.65;;
11269;SDS011;5692;48.956;9.200;2023-02-28T07:17:49;82.43;;;78.45;;
11269;SDS011;5692;48.956;9.200;2023-02-28T07:20:15;80.10;;;76.22;;
11269;SDS011;5692;48.956;9.200;2023-02-28T07:22:41;78.13;;;74.35;;
11269;SDS011;5692;48.956;9.200;2023-02-28T07:25:08;81.30;;;77.40;;
11269;SDS011;5692;48.956;9.200;2023-02-28T07:27:34;82.82;;;78.82;;
11269;SDS011;5692;48.956;9.200;2023-02-28T07:30:03;88.93;;;84.63;;
11269;SDS011;5692;48.956;9.200;2023-02-28T07:32:29;82.07;;;78.13;;
11269;SDS011;5692;48.956;9.200;2023-02-28T07:34:55;77.25;;;73.55;;
11269;SDS011;5692;48.956;9.200;2023-02-28T07:37:21;80.53;;;76.63;;
11269;SDS011;5692;48.956;9.200;2023-02-28T07:39:51;83.75;;;79.75;;
11269;SDS011;5692;48.956;9.200;2023-02-28T07:42:26;83.18;;;79.18;;
11269;SDS011;5692;48.956;9.200;2023-02-28T07:44:52;84.40;;;80.30;;
11269;SDS011;5692;48.956;9.200;2023-02-28T07:47:21;85.97;;;81.82;;
11269;SDS011;5692;48.956;9.200;2023-02-28T07:49:47;81.85;;;77.90;;
11269;SDS011;5692;48.956;9.200;2023-02-28T07:52:13;84.90;;;80.80;;
11269;SDS011;5692;48.956;9.200;2023-02-28T07:54:42;83.63;;;79.57;;
11269;SDS011;5692;48.956;9.200;2023-02-28T07:57:11;83.55;;;79.53;;
11269;SDS011;5692;48.956;9.200;2023-02-28T07:59:40;85.60;;;81.47;;
11269;SDS011;5692;48.956;9.200;2023-02-28T08:02:11;87.47;;;83.28;;
11269;SDS011;5692;48.956;9.200;2023-02-28T08:04:38;84.63;;;80.53;;
11269;SDS011;5692;48.956;9.200;2023-02-28T08:07:04;81.18;;;77.28;;
11269;SDS011;5692;48.956;9.200;2023-02-28T08:09:34;88.03;;;83.80;;
11269;SDS011;5692;48.956;9.200;2023-02-28T08:12:00;88.45;;;84.15;;
11269;SDS011;5692;48.956;9.200;2023-02-28T08:14:26;82.75;;;78.75;;
11269;SDS011;5692;48.956;9.200;2023-02-28T08:16:55;79.97;;;76.10;;
11269;SDS011;5692;48.956;9.200;2023-02-28T08:19:22;81.05;;;77.13;;
11269;SDS011;5692;48.956;9.200;2023-02-28T08:21:51;76.72;;;73.03;;
11269;SDS011;5692;48.956;9.200;2023-02-28T08:24:17;84.90;;;80.80;;
11269;SDS011;5692;48.956;9.200;2023-02-28T08:26:46;87.22;;;83.03;;
11269;SDS011;5692;48.956;9.200;2023-02-28T08:29:12;83.82;;;79.80;;
11269;SDS011;5692;48.956;9.200;2023-02-28T08:31:38;85.10;;;81.00;;
11269;SDS011;5692;48.956;9.200;2023-02-28T08:34:08;93.13;;;88.63;;
11269;SDS011;5692;48.956;9.200;2023-02-28T08:36:36;88.70;;;84.40;;
11269;SDS011;5692;48.956;9.200;2023-02-28T08:39:04;87.30;;;83.10;;
11269;SDS011;5692;48.956;9.200;2023-02-28T08:41:33;90.95;;;86.57;;
11269;SDS011;5692;48.956;9.200;2023-02-28T08:44:02;97.13;;;92.43;;
11269;SDS011;5692;48.956;9.200;2023-02-28T08:46:30;86.88;;;82.70;;
11269;SDS011;5692;48.956;9.200;2023-02-28T08:49:02;99.00;;;94.20;;
11269;SDS011;5692;48.956;9.200;2023-02-28T08:51:28;96.18;;;91.57;;
11269;SDS011;5692;48.956;9.200;2023-02-28T08:53:55;100.20;;;95.38;;
11269;SDS011;5692;48.956;9.200;2023-02-28T08:56:24;104.05;;;99.05;;
11269;SDS011;5692;48.956;9.200;2023-02-28T08:58:51;100.70;;;95.88;;
11269;SDS011;5692;48.956;9.200;2023-02-28T09:01:29;106.03;;;100.93;;
11269;SDS011;5692;48.956;9.200;2023-02-28T09:03:59;103.60;;;98.63;;
11269;SDS011;5692;48.956;9.200;2023-02-28T09:06:30;114.75;;;109.25;;
11269;SDS011;5692;48.956;9.200;2023-02-28T09:08:57;107.50;;;102.30;;
11269;SDS011;5692;48.956;9.200;2023-02-28T09:11:28;109.63;;;104.32;;
11269;SDS011;5692;48.956;9.200;2023-02-28T09:13:54;105.53;;;100.45;;
11269;SDS011;5692;48.956;9.200;2023-02-28T09:16:20;109.47;;;104.20;;
11269;SDS011;5692;48.956;9.200;2023-02-28T09:18:49;106.55;;;101.43;;
11269;SDS011;5692;48.956;9.200;2023-02-28T09:21:16;111.07;;;105.75;;
11269;SDS011;5692;48.956;9.200;2023-02-28T09:23:43;115.28;;;109.72;;
11269;SDS011;5692;48.956;9.200;2023-02-28T09:26:13;110.28;;;104.97;;
11269;SDS011;5692;48.956;9.200;2023-02-28T09:28:42;114.75;;;109.25;;
11269;SDS011;5692;48.956;9.200;2023-02-28T09:31:15;107.38;;;102.20;;
11269;SDS011;5692;48.956;9.200;2023-02-28T09:33:45;114.20;;;108.70;;
11269;SDS011;5692;48.956;9.200;2023-02-28T09:36:14;110.32;;;105.03;;
11269;SDS011;5692;48.956;9.200;2023-02-28T09:38:43;114.72;;;109.20;;
11269;SDS011;5692;48.956;9.200;2023-02-28T09:41:17;114.30;;;108.80;;
11269;SDS011;5692;48.956;9.200;2023-02-28T09:43:45;107.32;;;102.15;;
11269;SDS011;5692;48.956;9.200;2023-02-28T09:48:58;112.55;;;107.15;;
11269;SDS011;5692;48.956;9.200;2023-02-28T09:53:57;120.32;;;114.53;;
11269;SDS011;5692;48.956;9.200;2023-02-28T09:56:32;107.68;;;102.50;;
11269;SDS011;5692;48.956;9.200;2023-02-28T09:59:04;114.30;;;108.80;;
11269;SDS011;5692;48.956;9.200;2023-02-28T10:06:50;113.97;;;108.47;;
11269;SDS011;5692;48.956;9.200;2023-02-28T10:09:21;109.25;;;104.00;;
11269;SDS011;5692;48.956;9.200;2023-02-28T10:11:50;108.85;;;103.63;;
11269;SDS011;5692;48.956;9.200;2023-02-28T10:21:59;118.82;;;113.13;;
11269;SDS011;5692;48.956;9.200;2023-02-28T10:26:52;114.60;;;109.10;;
11269;SDS011;5692;48.956;9.200;2023-02-28T10:29:22;110.88;;;105.55;;
11269;SDS011;5692;48.956;9.200;2023-02-28T10:31:48;123.90;;;117.95;;
11269;SDS011;5692;48.956;9.200;2023-02-28T10:34:14;125.53;;;119.50;;
11269;SDS011;5692;48.956;9.200;2023-02-28T10:36:40;128.73;;;122.53;;
11269;SDS011;5692;48.956;9.200;2023-02-28T10:41:52;133.80;;;127.40;;
11269;SDS011;5692;48.956;9.200;2023-02-28T10:44:21;133.50;;;127.10;;
11269;SDS011;5692;48.956;9.200;2023-02-28T10:46:53;136.48;;;129.93;;
11269;SDS011;5692;48.956;9.200;2023-02-28T10:49:20;133.70;;;127.30;;
11269;SDS011;5692;48.956;9.200;2023-02-28T10:51:57;141.82;;;135.02;;
11269;SDS011;5692;48.956;9.200;2023-02-28T10:54:28;138.25;;;131.60;;
11269;SDS011;5692;48.956;9.200;2023-02-28T10:59:40;123.40;;;117.50;;
11269;SDS011;5692;48.956;9.200;2023-02-28T11:02:32;131.52;;;125.22;;
11269;SDS011;5692;48.956;9.200;2023-02-28T11:04:59;134.43;;;127.95;;
11269;SDS011;5692;48.956;9.200;2023-02-28T11:07:29;134.07;;;127.65;;
11269;SDS011;5692;48.956;9.200;2023-02-28T11:09:56;139.93;;;133.20;;
11269;SDS011;5692;48.956;9.200;2023-02-28T11:14:58;116.40;;;110.80;;
11269;SDS011;5692;48.956;9.200;2023-02-28T11:17:29;119.15;;;113.45;;
11269;SDS011;5692;48.956;9.200;2023-02-28T11:20:05;118.50;;;112.80;;
11269;SDS011;5692;48.956;9.200;2023-02-28T11:22:39;116.90;;;111.30;;
11269;SDS011;5692;48.956;9.200;2023-02-28T11:25:24;121.45;;;115.65;;
11269;SDS011;5692;48.956;9.200;2023-02-28T11:27:55;133.95;;;127.55;;
11269;SDS011;5692;48.956;9.200;2023-02-28T11:30:26;120.43;;;114.63;;
11269;SDS011;5692;48.956;9.200;2023-02-28T11:32:56;143.15;;;136.25;;
11269;SDS011;5692;48.956;9.200;2023-02-28T11:35:31;132.77;;;126.40;;
11269;SDS011;5692;48.956;9.200;2023-02-28T11:37:59;132.10;;;125.78;;
11269;SDS011;5692;48.956;9.200;2023-02-28T11:43:16;144.30;;;137.38;;
11269;SDS011;5692;48.956;9.200;2023-02-28T11:48:44;160.73;;;153.02;;
11269;SDS011;5692;48.956;9.200;2023-02-28T11:51:14;150.95;;;143.73;;
11269;SDS011;5692;48.956;9.200;2023-02-28T11:56:17;156.57;;;149.07;;
11269;SDS011;5692;48.956;9.200;2023-02-28T12:04:11;173.75;;;165.43;;
11269;SDS011;5692;48.956;9.200;2023-02-28T12:06:44;174.30;;;165.95;;
11269;SDS011;5692;48.956;9.200;2023-02-28T12:11:55;163.05;;;155.25;;
11269;SDS011;5692;48.956;9.200;2023-02-28T12:19:45;195.10;;;185.80;;
11269;SDS011;5692;48.956;9.200;2023-02-28T12:27:32;225.38;;;214.57;;
11269;SDS011;5692;48.956;9.200;2023-02-28T12:30:03;213.75;;;203.52;;
11269;SDS011;5692;48.956;9.200;2023-02-28T12:32:36;209.55;;;199.55;;
11269;SDS011;5692;48.956;9.200;2023-02-28T12:35:06;224.90;;;214.15;;
11269;SDS011;5692;48.956;9.200;2023-02-28T12:37:39;222.43;;;211.77;;
11269;SDS011;5692;48.956;9.200;2023-02-28T12:40:12;221.32;;;210.73;;
11269;SDS011;5692;48.956;9.200;2023-02-28T12:42:40;214.82;;;204.55;;
11269;SDS011;5692;48.956;9.200;2023-02-28T12:45:17;213.13;;;202.93;;
11269;SDS011;5692;48.956;9.200;2023-02-28T12:47:44;215.90;;;205.57;;
11269;SDS011;5692;48.956;9.200;2023-02-28T12:50:12;222.30;;;211.65;;
11269;SDS011;5692;48.956;9.200;2023-02-28T13:00:45;241.07;;;229.55;;
11269;SDS011;5692;48.956;9.200;2023-02-28T13:03:28;240.00;;;228.50;;
11269;SDS011;5692;48.956;9.200;2023-02-28T13:06:12;227.13;;;216.25;;
11269;SDS011;5692;48.956;9.200;2023-02-28T13:11:29;224.45;;;213.70;;
11269;SDS011;5692;48.956;9.200;2023-02-28T13:14:01;201.93;;;192.23;;
11269;SDS011;5692;48.956;9.200;2023-02-28T13:17:14;205.40;;;195.57;;
11269;SDS011;5692;48.956;9.200;2023-02-28T13:19:16;187.02;;;178.07;;
11269;SDS011;5692;48.956;9.200;2023-02-28T13:21:43;196.05;;;186.68;;
11269;SDS011;5692;48.956;9.200;2023-02-28T13:24:10;176.70;;;168.23;;
11269;SDS011;5692;48.956;9.200;2023-02-28T13:34:24;169.73;;;161.63;;
11269;SDS011;5692;48.956;9.200;2023-02-28T13:36:50;164.60;;;156.70;;
11269;SDS011;5692;48.956;9.200;2023-02-28T13:50:15;174.43;;;166.07;;
11269;SDS011;5692;48.956;9.200;2023-02-28T13:52:48;180.30;;;171.68;;
11269;SDS011;5692;48.956;9.200;2023-02-28T13:55:52;178.93;;;170.32;;
11269;SDS011;5692;48.956;9.200;2023-02-28T14:06:52;176.32;;;167.88;;
11269;SDS011;5692;48.956;9.200;2023-02-28T14:09:29;176.15;;;167.73;;
11269;SDS011;5692;48.956;9.200;2023-02-28T14:11:57;162.80;;;155.00;;
11269;SDS011;5692;48.956;9.200;2023-02-28T14:17:17;157.05;;;149.55;;
11269;SDS011;5692;48.956;9.200;2023-02-28T14:19:44;183.80;;;175.00;;
11269;SDS011;5692;48.956;9.200;2023-02-28T14:22:21;166.05;;;158.07;;
11269;SDS011;5692;48.956;9.200;2023-02-28T14:28:03;167.55;;;159.55;;
11269;SDS011;5692;48.956;9.200;2023-02-28T14:30:56;166.70;;;158.70;;
11269;SDS011;5692;48.956;9.200;2023-02-28T14:36:03;165.05;;;157.13;;
11269;SDS011;5692;48.956;9.200;2023-02-28T14:38:35;151.48;;;144.23;;
11269;SDS011;5692;48.956;9.200;2023-02-28T14:41:04;182.00;;;173.30;;
11269;SDS011;5692;48.956;9.200;2023-02-28T14:43:35;178.40;;;169.85;;
11269;SDS011;5692;48.956;9.200;2023-02-28T14:46:04;185.18;;;176.32;;
11269;SDS011;5692;48.956;9.200;2023-02-28T14:48:34;165.80;;;157.88;;
11269;SDS011;5692;48.956;9.200;2023-02-28T14:51:04;184.73;;;175.88;;
11269;SDS011;5692;48.956;9.200;2023-02-28T14:53:36;180.52;;;171.88;;
11269;SDS011;5692;48.956;9.200;2023-02-28T14:56:06;156.35;;;148.85;;
11269;SDS011;5692;48.956;9.200;2023-02-28T14:58:33;167.70;;;159.68;;
11269;SDS011;5692;48.956;9.200;2023-02-28T15:01:00;165.65;;;157.70;;
11269;SDS011;5692;48.956;9.200;2023-02-28T15:03:37;162.13;;;154.38;;
11269;SDS011;5692;48.956;9.200;2023-02-28T15:06:05;162.13;;;154.35;;
11269;SDS011;5692;48.956;9.200;2023-02-28T15:08:34;160.75;;;153.05;;
11269;SDS011;5692;48.956;9.200;2023-02-28T15:11:19;147.88;;;140.77;;
11269;SDS011;5692;48.956;9.200;2023-02-28T15:13:52;158.85;;;151.23;;
11269;SDS011;5692;48.956;9.200;2023-02-28T15:16:37;161.25;;;153.55;;
11269;SDS011;5692;48.956;9.200;2023-02-28T15:21:55;151.27;;;144.02;;
11269;SDS011;5692;48.956;9.200;2023-02-28T15:24:26;155.63;;;148.18;;
11269;SDS011;5692;48.956;9.200;2023-02-28T15:26:58;154.07;;;146.68;;
11269;SDS011;5692;48.956;9.200;2023-02-28T15:29:26;147.77;;;140.68;;
11269;SDS011;5692;48.956;9.200;2023-02-28T15:31:57;160.82;;;153.13;;
11269;SDS011;5692;48.956;9.200;2023-02-28T15:37:01;145.27;;;138.27;;
11269;SDS011;5692;48.956;9.200;2023-02-28T15:39:29;151.27;;;144.02;;
11269;SDS011;5692;48.956;9.200;2023-02-28T15:42:11;148.25;;;141.15;;
11269;SDS011;5692;48.956;9.200;2023-02-28T15:44:37;163.50;;;155.65;;
11269;SDS011;5692;48.956;9.200;2023-02-28T15:47:11;148.18;;;141.07;;
11269;SDS011;5692;48.956;9.200;2023-02-28T15:49:48;155.07;;;147.63;;
11269;SDS011;5692;48.956;9.200;2023-02-28T15:52:16;160.93;;;153.23;;
11269;SDS011;5692;48.956;9.200;2023-02-28T15:54:43;155.05;;;147.60;;
11269;SDS011;5692;48.956;9.200;2023-02-28T15:57:13;138.57;;;131.93;;
11269;SDS011;5692;48.956;9.200;2023-02-28T15:59:42;146.98;;;139.93;;
11269;SDS011;5692;48.956;9.200;2023-02-28T16:07:33;158.05;;;150.48;;
11269;SDS011;5692;48.956;9.200;2023-02-28T16:10:00;135.60;;;129.10;;
11269;SDS011;5692;48.956;9.200;2023-02-28T16:12:27;153.88;;;146.50;;
11269;SDS011;5692;48.956;9.200;2023-02-28T16:14:55;148.57;;;141.45;;
11269;SDS011;5692;48.956;9.200;2023-02-28T16:17:25;151.75;;;144.48;;
11269;SDS011;5692;48.956;9.200;2023-02-28T16:19:55;140.88;;;134.13;;
11269;SDS011;5692;48.956;9.200;2023-02-28T16:22:21;148.15;;;141.05;;
11269;SDS011;5692;48.956;9.200;2023-02-28T16:24:50;150.38;;;143.18;;
11269;SDS011;5692;48.956;9.200;2023-02-28T16:27:24;139.07;;;132.38;;
11269;SDS011;5692;48.956;9.200;2023-02-28T16:29:53;150.80;;;143.55;;
11269;SDS011;5692;48.956;9.200;2023-02-28T16:32:25;142.70;;;135.85;;
11269;SDS011;5692;48.956;9.200;2023-02-28T16:34:51;136.23;;;129.73;;
11269;SDS011;5692;48.956;9.200;2023-02-28T16:37:20;139.63;;;132.93;;
11269;SDS011;5692;48.956;9.200;2023-02-28T16:39:49;131.75;;;125.43;;
11269;SDS011;5692;48.956;9.200;2023-02-28T16:42:20;149.05;;;141.90;;
11269;SDS011;5692;48.956;9.200;2023-02-28T16:44:49;136.45;;;129.90;;
11269;SDS011;5692;48.956;9.200;2023-02-28T16:47:16;147.52;;;140.43;;
11269;SDS011;5692;48.956;9.200;2023-02-28T16:49:42;135.80;;;129.30;;
11269;SDS011;5692;48.956;9.200;2023-02-28T16:52:09;132.23;;;125.88;;
11269;SDS011;5692;48.956;9.200;2023-02-28T16:54:43;125.03;;;119.03;;
11269;SDS011;5692;48.956;9.200;2023-02-28T16:57:16;130.40;;;124.15;;
11269;SDS011;5692;48.956;9.200;2023-02-28T16:59:43;124.55;;;118.55;;
11269;SDS011;5692;48.956;9.200;2023-02-28T17:02:13;129.80;;;123.60;;
11269;SDS011;5692;48.956;9.200;2023-02-28T17:04:40;131.40;;;125.10;;
11269;SDS011;5692;48.956;9.200;2023-02-28T17:07:11;128.13;;;121.97;;
11269;SDS011;5692;48.956;9.200;2023-02-28T17:09:40;119.30;;;113.60;;
11269;SDS011;5692;48.956;9.200;2023-02-28T17:12:09;106.90;;;101.78;;